Time;durP1;ratioP1;P1;durP2;ratioP2;P2;SDS_P1;SDS_P2;PMS_P1;PMS_P2;Temp;Humidity;BMP_temperature;BMP_pressure;BME280_temperature;BME280_humidity;BME280_pressure;Samples;Min_cycle;Max_cycle;Signal;HPM_P1;HPM_P2
2021/01/25 00:00:41;;;;;;;1.20;1.00;;;-0.50;98.00;;;;;;5088877;28;20372;-67
2021/01/25 00:03:08;;;;;;;1.20;1.10;;;-0.40;98.00;;;;;;5089603;28;20229;-69
2021/01/25 00:05:37;;;;;;;1.67;1.23;;;-0.30;98.00;;;;;;5088829;28;20466;-68
2021/01/25 00:08:04;;;;;;;1.30;1.30;;;-0.30;98.00;;;;;;5090739;28;20984;-68
2021/01/25 00:10:31;;;;;;;1.20;1.00;;;-0.20;98.00;;;;;;5089053;28;20469;-67
2021/01/25 00:12:57;;;;;;;2.43;1.40;;;-0.10;98.00;;;;;;5092537;28;20457;-67
2021/01/25 00:15:27;;;;;;;2.50;1.67;;;0.00;98.00;;;;;;5093007;28;20461;-66
2021/01/25 00:17:53;;;;;;;1.30;1.20;;;-0.10;98.00;;;;;;5094921;28;21002;-64
2021/01/25 00:20:21;;;;;;;2.58;2.38;;;0.00;98.00;;;;;;5093141;28;20513;-65
2021/01/25 00:22:47;;;;;;;1.20;1.10;;;-0.10;98.00;;;;;;5094454;28;20219;-68
2021/01/25 00:25:21;;;;;;;2.40;1.43;;;-0.20;98.00;;;;;;5092854;28;20460;-65
2021/01/25 00:27:48;;;;;;;3.30;2.13;;;-0.10;98.00;;;;;;5094485;28;20448;-65
2021/01/25 00:30:17;;;;;;;1.20;1.10;;;-0.10;98.00;;;;;;5092783;28;20455;-65
2021/01/25 00:32:43;;;;;;;1.30;1.10;;;-0.10;98.00;;;;;;5094499;28;20681;-65
2021/01/25 00:35:12;;;;;;;6.27;3.03;;;0.00;98.00;;;;;;5092842;28;20475;-65
2021/01/25 00:37:40;;;;;;;2.27;1.63;;;0.20;98.00;;;;;;5094208;28;20458;-65
2021/01/25 00:40:11;;;;;;;3.00;2.03;;;0.30;98.00;;;;;;5092686;28;20511;-65
2021/01/25 00:42:38;;;;;;;1.57;1.53;;;0.30;98.00;;;;;;5094252;28;20848;-64
2021/01/25 00:45:06;;;;;;;1.20;1.10;;;0.40;98.00;;;;;;5092422;28;21028;-64
2021/01/25 00:47:32;;;;;;;1.37;1.23;;;0.40;98.00;;;;;;5093678;28;20464;-64
2021/01/25 00:49:59;;;;;;;1.37;1.30;;;0.40;98.00;;;;;;5092520;28;20769;-65
2021/01/25 00:52:25;;;;;;;1.20;1.10;;;0.20;98.00;;;;;;5092849;28;20464;-66
2021/01/25 00:54:56;;;;;;;1.40;1.30;;;0.00;98.00;;;;;;5092544;28;20849;-65
2021/01/25 00:57:22;;;;;;;1.50;1.27;;;-0.10;98.00;;;;;;5092514;28;20236;-67
2021/01/25 00:59:52;;;;;;;1.20;1.10;;;-0.20;98.00;;;;;;5092298;28;20199;-64
2021/01/25 01:02:19;;;;;;;2.38;2.20;;;-0.20;98.00;;;;;;5092365;28;20479;-66
2021/01/25 01:04:46;;;;;;;1.40;1.33;;;-0.30;98.00;;;;;;5092487;28;20207;-65
2021/01/25 01:07:12;;;;;;;1.75;1.30;;;-0.30;98.00;;;;;;5093813;28;20211;-65
2021/01/25 01:09:43;;;;;;;1.15;1.00;;;-0.20;98.00;;;;;;5093465;28;20436;-65
2021/01/25 01:12:11;;;;;;;1.20;1.10;;;-0.30;98.00;;;;;;5092527;28;20221;-64
2021/01/25 01:14:37;;;;;;;1.57;1.53;;;-0.40;98.00;;;;;;5093403;28;20215;-64
2021/01/25 01:17:04;;;;;;;1.10;0.90;;;-0.40;98.00;;;;;;5092364;28;20488;-65
2021/01/25 01:19:30;;;;;;;2.58;1.48;;;-0.40;98.00;;;;;;5093695;28;20463;-64
2021/01/25 01:21:57;;;;;;;1.47;1.17;;;-0.20;98.00;;;;;;5091942;28;20223;-65
2021/01/25 01:24:24;;;;;;;1.20;1.10;;;-0.10;98.00;;;;;;5092705;28;20461;-67
2021/01/25 01:26:50;;;;;;;1.20;1.10;;;0.00;98.00;;;;;;5091727;28;20200;-64
2021/01/25 01:29:18;;;;;;;1.60;1.30;;;0.10;98.00;;;;;;5093447;28;20959;-65
2021/01/25 01:31:45;;;;;;;2.50;1.93;;;0.20;98.00;;;;;;5091666;28;20457;-65
2021/01/25 01:34:11;;;;;;;1.80;1.60;;;0.10;98.00;;;;;;5093315;28;20836;-66
2021/01/25 01:36:38;;;;;;;2.40;1.63;;;0.10;98.00;;;;;;5091453;28;20450;-65
2021/01/25 01:39:05;;;;;;;1.67;1.27;;;0.10;98.00;;;;;;5093158;28;20803;-64
2021/01/25 01:41:35;;;;;;;1.40;1.27;;;0.10;98.00;;;;;;5091386;28;20596;-64
2021/01/25 01:44:02;;;;;;;1.93;1.60;;;0.20;98.00;;;;;;5093158;28;20389;-64
2021/01/25 01:46:30;;;;;;;1.20;1.10;;;0.10;98.00;;;;;;5091374;28;20457;-65
2021/01/25 01:48:57;;;;;;;1.20;1.00;;;-0.10;98.00;;;;;;5093041;28;20209;-65
2021/01/25 01:51:23;;;;;;;1.20;1.13;;;-0.20;98.00;;;;;;5091380;28;20974;-70
2021/01/25 01:53:50;;;;;;;1.90;1.50;;;-0.20;98.00;;;;;;5092870;28;20458;-64
2021/01/25 01:56:17;;;;;;;1.20;1.00;;;-0.20;98.00;;;;;;5091259;28;20203;-65
2021/01/25 01:58:43;;;;;;;1.20;1.10;;;-0.30;98.00;;;;;;5092622;28;20856;-67
2021/01/25 02:01:10;;;;;;;1.10;1.00;;;-0.40;98.00;;;;;;5091131;28;20453;-64
2021/01/25 02:03:38;;;;;;;1.20;1.10;;;-0.40;98.00;;;;;;5093021;28;20469;-65
2021/01/25 02:06:06;;;;;;;1.30;1.10;;;-0.30;98.00;;;;;;5091315;28;20918;-64
2021/01/25 02:08:35;;;;;;;1.10;1.03;;;-0.20;98.00;;;;;;5092558;28;20460;-64
2021/01/25 02:11:03;;;;;;;1.50;1.15;;;-0.10;98.00;;;;;;5091457;28;20461;-70
2021/01/25 02:13:30;;;;;;;1.20;1.10;;;-0.10;98.00;;;;;;5093544;28;20208;-65
2021/01/25 02:16:01;;;;;;;1.33;1.10;;;0.10;98.00;;;;;;5091736;28;20252;-65
2021/01/25 02:18:28;;;;;;;1.48;1.42;;;0.10;98.00;;;;;;5093087;28;20480;-64
2021/01/25 02:20:55;;;;;;;3.87;2.03;;;0.10;98.00;;;;;;5090829;28;20546;-64
2021/01/25 02:23:44;;;;;;;1.20;1.15;;;0.20;98.00;;;;;;5092227;28;20481;-65
2021/01/25 02:26:19;;;;;;;1.57;1.57;;;-0.10;98.00;;;;;;5090863;28;20206;-65
2021/01/25 02:28:47;;;;;;;1.20;1.07;;;-0.30;98.00;;;;;;5092283;28;20501;-66
2021/01/25 02:31:14;;;;;;;1.20;1.20;;;-0.40;98.00;;;;;;5090572;28;20484;-64
2021/01/25 02:33:44;;;;;;;7.07;2.30;;;-0.30;98.00;;;;;;5092156;28;20465;-65
2021/01/25 02:36:12;;;;;;;3.87;2.70;;;-0.30;98.00;;;;;;5089499;28;21016;-64
2021/01/25 02:38:42;;;;;;;1.20;1.00;;;-0.30;98.00;;;;;;5092051;28;20459;-68
2021/01/25 02:41:10;;;;;;;1.10;1.00;;;-0.40;98.00;;;;;;5090061;28;20210;-66
2021/01/25 02:43:37;;;;;;;2.43;1.40;;;-0.50;98.00;;;;;;5091862;28;20665;-67
2021/01/25 02:46:07;;;;;;;1.20;1.00;;;-0.40;98.00;;;;;;5090348;28;20456;-64
2021/01/25 02:48:34;;;;;;;2.38;1.95;;;-0.50;98.00;;;;;;5091859;28;20877;-64
2021/01/25 02:51:01;;;;;;;1.30;1.20;;;-0.60;98.00;;;;;;5090414;28;20213;-65
2021/01/25 02:53:27;;;;;;;2.17;1.80;;;-0.60;98.00;;;;;;5091897;28;20210;-65
2021/01/25 02:56:06;;;;;;;1.20;1.00;;;-0.70;98.00;;;;;;5148533;27;20530;-66
2021/01/25 02:58:34;;;;;;;1.30;1.17;;;-0.80;98.00;;;;;;5129022;28;20503;-66
2021/01/25 03:01:01;;;;;;;1.30;1.23;;;-0.70;98.00;;;;;;5127614;27;20659;-66
2021/01/25 03:03:30;;;;;;;1.97;1.43;;;-0.60;98.00;;;;;;5128834;28;20202;-66
2021/01/25 03:05:57;;;;;;;1.73;1.42;;;-0.50;98.00;;;;;;5127341;28;20451;-65
2021/01/25 03:08:25;;;;;;;1.10;1.00;;;-0.40;98.00;;;;;;5128893;28;20216;-65
2021/01/25 03:10:52;;;;;;;1.10;0.90;;;-0.30;98.00;;;;;;5127149;27;20241;-65
2021/01/25 03:13:25;;;;;;;1.20;1.10;;;-0.20;98.00;;;;;;5128844;28;20450;-65
2021/01/25 03:15:54;;;;;;;1.10;1.00;;;-0.20;98.00;;;;;;5126985;28;20489;-67
2021/01/25 03:18:21;;;;;;;1.20;1.00;;;-0.10;98.00;;;;;;5128663;27;20495;-65
2021/01/25 03:20:48;;;;;;;2.60;1.20;;;0.00;98.00;;;;;;5126972;28;20540;-65
2021/01/25 03:23:15;;;;;;;3.60;1.53;;;0.00;98.00;;;;;;5128526;28;20469;-65
2021/01/25 03:25:41;;;;;;;1.20;1.00;;;0.00;98.00;;;;;;5126800;28;20459;-65
2021/01/25 03:28:08;;;;;;;1.20;1.10;;;0.00;98.00;;;;;;5128278;28;20463;-64
2021/01/25 03:30:35;;;;;;;1.20;1.00;;;0.20;98.00;;;;;;5126578;28;20514;-65
2021/01/25 03:33:03;;;;;;;1.30;1.10;;;0.20;98.00;;;;;;5128442;28;20490;-67
2021/01/25 03:35:30;;;;;;;1.20;1.00;;;0.20;98.00;;;;;;5126346;28;20897;-67
2021/01/25 03:37:56;;;;;;;1.20;1.00;;;0.40;98.00;;;;;;5127998;28;20513;-64
2021/01/25 03:40:23;;;;;;;1.20;1.00;;;0.40;98.00;;;;;;5126476;28;20452;-65
2021/01/25 03:42:49;;;;;;;1.20;1.00;;;0.40;98.00;;;;;;5128253;28;20461;-65
2021/01/25 03:45:16;;;;;;;1.40;1.10;;;0.40;98.00;;;;;;5126559;28;20854;-64
2021/01/25 03:47:43;;;;;;;1.20;1.10;;;0.40;98.00;;;;;;5128159;28;20462;-66
2021/01/25 03:50:11;;;;;;;1.33;1.13;;;0.30;98.00;;;;;;5126201;28;20452;-68
2021/01/25 03:52:37;;;;;;;1.20;1.10;;;0.20;98.00;;;;;;5128083;28;20483;-65
2021/01/25 03:55:05;;;;;;;1.53;1.37;;;0.20;98.00;;;;;;5126127;28;20549;-66
2021/01/25 03:57:31;;;;;;;1.10;1.00;;;0.30;98.00;;;;;;5127904;27;20455;-65
2021/01/25 03:59:58;;;;;;;1.17;1.10;;;0.30;98.00;;;;;;5127040;28;20455;-67
2021/01/25 04:02:24;;;;;;;6.07;2.27;;;0.30;98.00;;;;;;5127630;28;20868;-66
2021/01/25 04:04:51;;;;;;;1.20;1.00;;;0.30;98.00;;;;;;5127887;28;20792;-65
2021/01/25 04:07:18;;;;;;;1.20;1.20;;;0.40;98.00;;;;;;5112349;28;20207;-65
2021/01/25 04:09:44;;;;;;;1.20;1.03;;;0.40;98.00;;;;;;5114085;28;20453;-65
2021/01/25 04:12:11;;;;;;;1.20;1.10;;;0.50;98.00;;;;;;5112157;28;20461;-65
2021/01/25 04:14:37;;;;;;;1.10;0.90;;;0.40;98.00;;;;;;5113956;28;20224;-65
2021/01/25 04:17:05;;;;;;;1.20;1.00;;;0.20;98.00;;;;;;5112386;28;20207;-67
2021/01/25 04:19:32;;;;;;;1.40;1.20;;;0.20;98.00;;;;;;5113789;28;20501;-65
2021/01/25 04:21:59;;;;;;;1.50;1.40;;;0.10;98.00;;;;;;5112256;28;20454;-66
2021/01/25 04:24:26;;;;;;;1.17;1.00;;;0.00;98.00;;;;;;5114067;28;20458;-66
2021/01/25 04:26:52;;;;;;;1.10;1.00;;;-0.10;98.00;;;;;;5111119;28;20454;-65
2021/01/25 04:29:19;;;;;;;1.20;1.00;;;0.00;98.00;;;;;;5113672;28;20456;-65
2021/01/25 04:31:45;;;;;;;1.20;0.90;;;0.20;98.00;;;;;;5111923;28;20837;-65
2021/01/25 04:34:12;;;;;;;1.53;1.40;;;0.20;98.00;;;;;;5113624;28;21017;-67
2021/01/25 04:36:38;;;;;;;1.20;1.00;;;0.40;98.00;;;;;;5111776;28;20517;-65
2021/01/25 04:39:06;;;;;;;3.83;1.53;;;0.50;98.00;;;;;;5113330;28;20457;-65
2021/01/25 04:41:33;;;;;;;1.10;1.00;;;0.60;98.00;;;;;;5111644;28;20488;-65
2021/01/25 04:44:01;;;;;;;1.30;1.10;;;0.50;98.00;;;;;;5113458;28;20449;-64
2021/01/25 04:46:28;;;;;;;1.10;1.00;;;0.30;98.00;;;;;;5111746;28;20440;-65
2021/01/25 04:48:55;;;;;;;2.10;1.85;;;0.40;98.00;;;;;;5113319;28;20460;-64
2021/01/25 04:51:24;;;;;;;2.27;2.03;;;0.40;98.00;;;;;;5111609;28;20202;-64
2021/01/25 04:53:51;;;;;;;1.10;1.00;;;0.50;98.00;;;;;;5112929;28;20823;-64
2021/01/25 04:56:18;;;;;;;1.73;1.57;;;0.60;98.00;;;;;;5111682;28;20457;-65
2021/01/25 04:58:45;;;;;;;1.20;1.10;;;0.60;98.00;;;;;;5112817;28;20500;-64
2021/01/25 05:01:12;;;;;;;1.40;1.30;;;0.60;98.00;;;;;;5111428;28;20687;-63
2021/01/25 05:03:39;;;;;;;1.90;1.30;;;0.60;98.00;;;;;;5112861;28;20940;-65
2021/01/25 05:06:05;;;;;;;2.57;1.83;;;0.40;98.00;;;;;;5111210;28;20453;-64
2021/01/25 05:08:33;;;;;;;1.10;1.00;;;0.30;98.00;;;;;;5112744;28;20455;-65
2021/01/25 05:11:11;;;;;;;1.53;1.47;;;0.20;98.00;;;;;;5111140;28;20480;-64
2021/01/25 05:13:39;;;;;;;1.17;1.00;;;0.30;98.00;;;;;;5112765;27;20941;-64
2021/01/25 05:16:16;;;;;;;1.20;1.17;;;0.40;98.00;;;;;;5111075;28;20575;-65
2021/01/25 05:18:43;;;;;;;1.20;1.10;;;0.40;98.00;;;;;;5111679;28;20453;-66
2021/01/25 05:21:09;;;;;;;1.20;1.10;;;0.50;98.00;;;;;;5110900;28;20484;-65
2021/01/25 05:23:38;;;;;;;2.50;1.13;;;0.40;98.00;;;;;;5112652;28;20598;-64
2021/01/25 05:26:06;;;;;;;1.10;1.00;;;0.40;98.00;;;;;;5110876;28;20456;-64
2021/01/25 05:28:41;;;;;;;1.10;1.00;;;0.50;98.00;;;;;;5112423;28;20202;-64
2021/01/25 05:31:21;;;;;;;1.13;1.00;;;0.50;98.00;;;;;;5110890;28;20466;-65
2021/01/25 05:33:48;;;;;;;1.10;0.90;;;0.50;98.00;;;;;;5112437;28;20456;-64
2021/01/25 05:36:19;;;;;;;1.10;0.97;;;0.60;98.00;;;;;;5110650;28;20458;-65
2021/01/25 05:38:48;;;;;;;1.50;1.30;;;0.60;98.00;;;;;;5112349;28;20462;-64
2021/01/25 05:41:16;;;;;;;1.30;1.23;;;0.60;98.00;;;;;;5110527;28;20453;-65
2021/01/25 05:43:44;;;;;;;1.93;1.37;;;0.60;98.00;;;;;;5112104;28;20209;-64
2021/01/25 05:46:12;;;;;;;1.30;1.17;;;0.60;98.00;;;;;;5110657;28;20939;-65
2021/01/25 05:48:39;;;;;;;1.90;1.73;;;0.60;98.00;;;;;;5112127;28;20499;-64
2021/01/25 05:51:14;;;;;;;3.03;1.77;;;0.50;98.00;;;;;;5110763;28;20456;-64
2021/01/25 05:53:41;;;;;;;1.10;1.00;;;0.60;98.00;;;;;;5112101;28;20461;-65
2021/01/25 05:56:09;;;;;;;1.10;1.07;;;0.50;98.00;;;;;;5110470;28;20321;-64
2021/01/25 05:58:35;;;;;;;1.83;1.20;;;0.50;98.00;;;;;;5112275;28;20472;-64
2021/01/25 06:01:03;;;;;;;1.10;1.10;;;0.50;98.00;;;;;;5110356;28;20462;-64
2021/01/25 06:03:36;;;;;;;1.10;0.90;;;0.60;98.00;;;;;;5111800;28;20870;-64
2021/01/25 06:06:16;;;;;;;1.10;1.10;;;0.60;98.00;;;;;;5110079;28;20540;-64
2021/01/25 06:08:52;;;;;;;1.20;1.10;;;0.60;98.00;;;;;;5111750;28;20464;-66
2021/01/25 06:11:36;;;;;;;1.13;1.00;;;0.70;98.00;;;;;;5110077;28;20953;-64
2021/01/25 06:14:10;;;;;;;1.43;1.33;;;0.70;98.00;;;;;;5111591;28;20974;-64
2021/01/25 06:16:40;;;;;;;1.30;1.10;;;0.60;98.00;;;;;;5109890;28;20469;-65
2021/01/25 06:19:09;;;;;;;2.67;1.83;;;0.70;98.00;;;;;;5111576;28;20453;-66
2021/01/25 06:21:40;;;;;;;1.30;1.20;;;0.60;98.00;;;;;;5109959;28;20458;-65
2021/01/25 06:24:08;;;;;;;1.10;1.00;;;0.60;98.00;;;;;;5111422;28;20465;-64
2021/01/25 06:26:37;;;;;;;1.10;1.00;;;0.50;98.00;;;;;;5109717;28;20451;-65
2021/01/25 06:29:05;;;;;;;1.10;0.93;;;0.50;98.00;;;;;;5110956;28;20481;-68
2021/01/25 06:31:35;;;;;;;1.10;1.00;;;0.50;98.00;;;;;;5109797;28;20468;-65
2021/01/25 06:34:04;;;;;;;3.30;1.93;;;0.50;98.00;;;;;;5111309;28;20531;-66
2021/01/25 06:36:36;;;;;;;1.17;1.00;;;0.50;98.00;;;;;;5110007;28;20481;-65
2021/01/25 06:39:04;;;;;;;1.20;1.10;;;0.50;98.00;;;;;;5111045;28;20975;-64
2021/01/25 06:41:36;;;;;;;1.10;1.10;;;0.50;98.00;;;;;;5109559;28;20513;-64
2021/01/25 06:44:04;;;;;;;1.10;1.00;;;0.60;98.00;;;;;;5111291;28;20486;-64
2021/01/25 06:46:32;;;;;;;1.20;1.10;;;0.60;98.00;;;;;;5109551;28;20461;-67
2021/01/25 06:48:59;;;;;;;1.47;1.20;;;0.40;98.00;;;;;;5111253;28;20529;-65
2021/01/25 06:51:28;;;;;;;1.53;1.30;;;0.40;98.00;;;;;;5109529;28;20454;-66
2021/01/25 06:53:54;;;;;;;6.17;2.20;;;0.40;98.00;;;;;;5109798;28;20469;-65
2021/01/25 06:56:21;;;;;;;1.10;1.00;;;0.40;98.00;;;;;;5109478;28;20464;-66
2021/01/25 06:58:49;;;;;;;1.20;1.00;;;0.40;98.00;;;;;;5111199;28;20476;-64
2021/01/25 07:01:20;;;;;;;1.20;1.00;;;0.40;98.00;;;;;;5109580;28;20462;-66
2021/01/25 07:03:51;;;;;;;1.43;1.40;;;0.50;98.00;;;;;;5110820;28;20460;-64
2021/01/25 07:06:19;;;;;;;1.10;1.00;;;0.40;98.00;;;;;;5109415;28;20452;-65
2021/01/25 07:08:54;;;;;;;1.10;1.00;;;0.50;98.00;;;;;;5111095;28;20548;-65
2021/01/25 07:11:23;;;;;;;1.20;1.20;;;0.50;98.00;;;;;;5109214;28;20456;-64
2021/01/25 07:13:50;;;;;;;4.13;1.87;;;0.60;98.00;;;;;;5111010;28;20453;-65
2021/01/25 07:16:18;;;;;;;1.93;1.73;;;0.60;98.00;;;;;;5109503;28;20962;-64
2021/01/25 07:18:44;;;;;;;1.10;1.00;;;0.70;98.00;;;;;;5093153;28;20468;-64
2021/01/25 07:21:14;;;;;;;1.10;0.93;;;0.60;98.00;;;;;;5109521;28;20460;-64
2021/01/25 07:23:42;;;;;;;1.20;1.00;;;0.60;98.00;;;;;;5110845;28;20460;-65
2021/01/25 07:26:11;;;;;;;1.10;0.90;;;0.60;98.00;;;;;;5109120;28;20453;-65
2021/01/25 07:28:39;;;;;;;2.33;1.57;;;0.70;98.00;;;;;;5110697;28;20493;-64
2021/01/25 07:31:06;;;;;;;1.30;1.10;;;0.80;98.00;;;;;;5109400;28;20452;-65
2021/01/25 07:33:33;;;;;;;1.87;1.57;;;0.80;98.00;;;;;;5111056;28;20456;-65
2021/01/25 07:35:59;;;;;;;1.20;1.10;;;0.80;98.00;;;;;;5109299;28;20485;-64
2021/01/25 07:38:28;;;;;;;1.10;1.00;;;0.90;98.00;;;;;;5110673;28;20541;-64
2021/01/25 07:43:42;;;;;;;1.10;1.00;;;1.00;98.00;;;;;;5114987;28;20453;-65
2021/01/25 07:46:11;;;;;;;1.13;1.00;;;1.00;98.00;;;;;;5113815;28;20950;-65
2021/01/25 07:48:49;;;;;;;2.03;1.87;;;1.10;98.00;;;;;;5115058;28;20568;-66
2021/01/25 07:51:19;;;;;;;1.20;1.10;;;1.10;98.00;;;;;;5112751;28;20469;-65
2021/01/25 07:53:45;;;;;;;2.23;1.23;;;1.10;98.00;;;;;;5114339;28;20522;-64
2021/01/25 07:56:14;;;;;;;1.10;1.00;;;1.20;98.00;;;;;;5112580;28;20485;-66
2021/01/25 07:58:42;;;;;;;1.30;1.10;;;1.30;98.00;;;;;;5114381;28;20464;-64
2021/01/25 08:01:15;;;;;;;2.07;1.77;;;1.40;98.00;;;;;;5112230;28;20501;-66
2021/01/25 08:03:44;;;;;;;1.60;1.37;;;1.40;98.00;;;;;;5114166;28;20988;-66
2021/01/25 08:06:12;;;;;;;1.30;1.13;;;1.50;98.00;;;;;;5112312;28;20460;-64
2021/01/25 08:08:40;;;;;;;2.47;1.67;;;1.50;98.00;;;;;;5114178;28;20458;-64
2021/01/25 08:11:07;;;;;;;1.83;1.40;;;1.30;98.00;;;;;;5112034;28;20465;-65
2021/01/25 08:13:41;;;;;;;1.20;1.20;;;1.40;98.00;;;;;;5113955;28;20457;-64
2021/01/25 08:16:12;;;;;;;1.20;1.10;;;1.50;98.00;;;;;;5111641;28;20488;-66
2021/01/25 08:18:44;;;;;;;1.60;1.30;;;1.50;98.00;;;;;;5113790;28;20454;-66
2021/01/25 08:21:17;;;;;;;4.03;2.93;;;1.50;98.00;;;;;;5111941;28;20454;-66
2021/01/25 08:23:46;;;;;;;1.40;1.30;;;1.50;98.00;;;;;;5113837;28;20465;-65
2021/01/25 08:26:13;;;;;;;1.57;1.53;;;1.40;98.00;;;;;;5111649;28;20448;-65
2021/01/25 08:28:45;;;;;;;1.30;1.10;;;1.40;98.00;;;;;;5113572;28;20515;-67
2021/01/25 08:31:15;;;;;;;1.43;1.10;;;1.50;98.00;;;;;;5111682;28;20454;-65
2021/01/25 08:33:45;;;;;;;1.40;1.40;;;1.50;98.00;;;;;;5113450;28;20479;-65
2021/01/25 08:36:12;;;;;;;1.10;1.00;;;1.70;98.00;;;;;;5111775;27;20481;-66
2021/01/25 08:38:41;;;;;;;2.10;1.97;;;1.90;98.00;;;;;;5113481;28;20975;-64
2021/01/25 08:41:21;;;;;;;1.20;1.10;;;1.90;98.00;;;;;;5111770;28;20470;-66
2021/01/25 08:43:54;;;;;;;1.43;1.33;;;1.80;98.00;;;;;;5113319;28;20545;-64
2021/01/25 08:46:28;;;;;;;2.33;1.63;;;1.80;98.00;;;;;;5111559;28;20453;-66
2021/01/25 08:48:55;;;;;;;3.10;1.50;;;1.80;98.00;;;;;;5113205;28;20461;-66
2021/01/25 08:51:30;;;;;;;1.20;1.10;;;2.00;98.00;;;;;;5111644;28;20882;-66
2021/01/25 08:54:01;;;;;;;1.20;1.10;;;2.10;98.00;;;;;;5113112;28;20987;-65
2021/01/25 08:56:36;;;;;;;1.20;1.20;;;2.10;98.00;;;;;;5111435;28;20892;-65
2021/01/25 08:59:12;;;;;;;1.30;1.20;;;2.00;98.00;;;;;;5113258;28;20483;-66
2021/01/25 09:01:39;;;;;;;1.60;1.20;;;2.00;98.00;;;;;;5111469;28;21013;-66
2021/01/25 09:04:06;;;;;;;6.30;2.23;;;1.90;98.00;;;;;;5113162;28;20469;-65
2021/01/25 09:06:38;;;;;;;1.77;1.67;;;1.70;98.00;;;;;;5109637;28;20460;-66
2021/01/25 09:09:06;;;;;;;1.20;0.97;;;1.60;98.00;;;;;;5112957;28;20484;-66
2021/01/25 09:11:35;;;;;;;4.60;2.17;;;1.70;98.00;;;;;;5111083;28;20469;-65
2021/01/25 09:14:01;;;;;;;4.13;2.50;;;1.80;98.00;;;;;;5113046;28;20458;-67
2021/01/25 09:16:29;;;;;;;1.30;1.27;;;1.80;98.00;;;;;;5109271;28;20482;-67
2021/01/25 09:18:55;;;;;;;1.20;1.10;;;1.90;98.00;;;;;;5112209;28;20458;-67
2021/01/25 09:21:22;;;;;;;1.40;1.30;;;1.90;98.00;;;;;;5110201;28;20463;-67
2021/01/25 09:23:52;;;;;;;2.40;1.90;;;1.90;98.00;;;;;;5112020;28;20488;-67
2021/01/25 09:26:19;;;;;;;1.97;1.40;;;1.90;98.00;;;;;;5108832;28;20886;-66
2021/01/25 09:28:46;;;;;;;1.40;1.10;;;1.90;98.00;;;;;;5111841;28;21044;-66
2021/01/25 09:31:14;;;;;;;2.27;2.07;;;1.90;98.00;;;;;;5109920;28;20489;-67
2021/01/25 09:33:42;;;;;;;1.50;1.40;;;2.10;98.00;;;;;;5112143;28;20779;-66
2021/01/25 09:36:09;;;;;;;11.83;5.00;;;2.10;98.00;;;;;;5109924;28;20482;-66
2021/01/25 09:38:36;;;;;;;1.40;1.30;;;2.10;98.00;;;;;;5112461;28;20458;-67
2021/01/25 09:41:03;;;;;;;1.67;1.57;;;2.20;98.00;;;;;;5110122;28;20913;-67
2021/01/25 09:43:29;;;;;;;1.30;1.20;;;2.20;98.00;;;;;;5111952;28;20816;-66
2021/01/25 09:45:56;;;;;;;2.10;1.77;;;2.10;98.00;;;;;;5110148;28;20458;-67
2021/01/25 09:48:22;;;;;;;1.20;1.00;;;2.20;98.00;;;;;;5112481;28;20462;-67
2021/01/25 09:50:51;;;;;;;1.53;1.43;;;2.50;98.00;;;;;;5110046;28;21391;-67
2021/01/25 09:53:17;;;;;;;1.20;1.00;;;2.60;98.00;;;;;;5112048;28;20451;-67
2021/01/25 09:55:44;;;;;;;1.20;1.13;;;2.50;98.00;;;;;;5091304;28;20556;-67
2021/01/25 09:58:10;;;;;;;1.93;1.50;;;2.40;98.00;;;;;;5091861;28;20460;-66
2021/01/25 10:00:37;;;;;;;3.73;1.67;;;2.60;98.00;;;;;;5089663;28;20949;-66
2021/01/25 10:03:04;;;;;;;2.80;2.60;;;2.50;98.00;;;;;;5091604;28;20478;-66
2021/01/25 10:05:31;;;;;;;1.77;1.63;;;2.40;98.00;;;;;;5091250;28;20459;-66
2021/01/25 10:07:58;;;;;;;1.50;1.43;;;2.40;98.00;;;;;;5090926;28;20467;-65
2021/01/25 10:10:27;;;;;;;2.13;1.83;;;2.40;98.00;;;;;;5093606;28;20452;-66
2021/01/25 10:12:53;;;;;;;3.33;1.63;;;2.30;98.00;;;;;;5109514;28;20543;-65
2021/01/25 10:15:20;;;;;;;1.77;1.50;;;2.20;98.00;;;;;;5111807;27;20509;-66
2021/01/25 10:17:47;;;;;;;1.30;1.10;;;2.20;98.00;;;;;;5109761;28;20458;-66
2021/01/25 10:20:15;;;;;;;1.30;1.20;;;2.10;98.00;;;;;;5112013;28;20451;-65
2021/01/25 10:22:42;;;;;;;1.20;1.10;;;2.10;98.00;;;;;;5109191;28;20822;-66
2021/01/25 10:25:11;;;;;;;8.93;2.77;;;2.20;98.00;;;;;;5111723;28;20451;-67
2021/01/25 10:27:40;;;;;;;1.20;1.07;;;2.30;98.00;;;;;;5109490;28;20809;-65
2021/01/25 10:30:12;;;;;;;1.50;1.20;;;2.40;98.00;;;;;;5097686;28;20490;-65
2021/01/25 10:32:38;;;;;;;6.10;3.43;;;2.50;98.00;;;;;;5086853;28;20460;-65
2021/01/25 10:35:06;;;;;;;1.20;1.00;;;2.40;98.00;;;;;;5090783;28;20588;-65
2021/01/25 10:37:33;;;;;;;1.93;1.83;;;2.40;98.00;;;;;;5088021;28;20459;-66
2021/01/25 10:39:59;;;;;;;1.77;1.67;;;2.50;98.00;;;;;;5090416;28;20458;-64
2021/01/25 10:42:28;;;;;;;1.30;1.20;;;2.60;98.00;;;;;;5088924;28;20499;-64
2021/01/25 10:44:55;;;;;;;1.63;1.33;;;2.70;98.00;;;;;;5089735;28;20464;-65
2021/01/25 10:47:21;;;;;;;1.40;1.30;;;2.70;98.00;;;;;;5089284;28;20447;-65
2021/01/25 10:49:49;;;;;;;1.40;1.27;;;2.80;98.00;;;;;;5090993;28;20452;-64
2021/01/25 10:52:16;;;;;;;1.90;1.80;;;2.70;98.00;;;;;;5089313;28;20486;-65
2021/01/25 10:54:43;;;;;;;1.47;1.40;;;2.70;98.00;;;;;;5090015;28;20490;-65
2021/01/25 10:57:10;;;;;;;2.07;1.80;;;2.70;98.00;;;;;;5089840;28;20444;-67
2021/01/25 10:59:38;;;;;;;1.67;1.57;;;2.60;98.00;;;;;;5091356;28;20482;-64
2021/01/25 11:02:05;;;;;;;1.60;1.50;;;2.70;98.00;;;;;;5088489;28;20452;-66
2021/01/25 11:04:32;;;;;;;1.30;1.20;;;2.80;98.00;;;;;;5089953;28;20851;-66
2021/01/25 11:06:58;;;;;;;1.53;1.53;;;2.90;98.00;;;;;;5089058;28;20528;-65
2021/01/25 11:09:25;;;;;;;2.00;1.33;;;3.00;98.00;;;;;;5091030;28;20463;-65
2021/01/25 11:11:52;;;;;;;1.80;1.70;;;3.10;98.00;;;;;;5088679;28;20471;-65
2021/01/25 11:14:20;;;;;;;3.53;2.20;;;3.10;98.00;;;;;;5089718;28;20459;-66
2021/01/25 11:16:48;;;;;;;1.37;1.17;;;3.00;98.00;;;;;;5090934;28;20466;-66
2021/01/25 11:19:14;;;;;;;1.40;1.20;;;3.10;98.00;;;;;;5095079;28;20459;-65
2021/01/25 11:21:41;;;;;;;2.70;2.10;;;3.00;98.00;;;;;;5092420;28;20467;-66
2021/01/25 11:24:08;;;;;;;1.60;1.20;;;3.20;98.00;;;;;;5094866;28;20515;-65
2021/01/25 11:26:38;;;;;;;1.70;1.43;;;3.30;98.00;;;;;;5092775;28;20942;-66
2021/01/25 11:29:05;;;;;;;2.33;1.63;;;3.30;98.00;;;;;;5094732;28;20452;-67
2021/01/25 11:31:32;;;;;;;1.20;1.20;;;3.20;98.00;;;;;;5092311;28;20512;-65
2021/01/25 11:33:59;;;;;;;1.20;1.13;;;3.30;98.00;;;;;;5094480;28;20456;-65
2021/01/25 11:36:26;;;;;;;1.87;1.40;;;3.30;98.00;;;;;;5092366;28;20881;-67
2021/01/25 11:38:53;;;;;;;6.47;2.60;;;3.40;98.00;;;;;;5094596;28;20458;-65
2021/01/25 11:41:20;;;;;;;1.20;0.90;;;3.40;98.00;;;;;;5092288;28;20499;-65
2021/01/25 11:43:46;;;;;;;2.67;1.57;;;3.40;98.00;;;;;;5094475;28;20986;-64
2021/01/25 11:46:13;;;;;;;2.33;1.83;;;3.30;98.00;;;;;;5092377;28;20456;-64
2021/01/25 11:48:40;;;;;;;1.40;1.30;;;3.10;98.00;;;;;;5094430;28;20451;-66
2021/01/25 11:51:07;;;;;;;1.87;1.77;;;3.00;98.00;;;;;;5091874;28;20452;-64
2021/01/25 11:53:35;;;;;;;5.53;2.50;;;3.00;98.00;;;;;;5094438;28;20466;-65
2021/01/25 11:56:03;;;;;;;1.30;1.20;;;3.00;98.00;;;;;;5091138;28;20577;-65
2021/01/25 11:58:32;;;;;;;1.20;1.10;;;3.00;98.00;;;;;;5094557;28;20456;-66
2021/01/25 12:00:58;;;;;;;2.13;1.97;;;3.00;98.00;;;;;;5090879;28;20531;-66
2021/01/25 12:03:25;;;;;;;1.70;1.63;;;3.00;98.00;;;;;;5094264;28;20458;-66
2021/01/25 12:05:51;;;;;;;1.43;1.37;;;2.90;98.00;;;;;;5091677;28;20455;-66
2021/01/25 12:08:19;;;;;;;3.93;1.37;;;2.90;98.00;;;;;;5094112;28;20464;-65
2021/01/25 12:10:46;;;;;;;2.17;1.90;;;3.00;98.00;;;;;;5092744;28;20463;-65
2021/01/25 12:13:13;;;;;;;3.30;2.17;;;3.10;98.00;;;;;;5092681;28;20510;-66
2021/01/25 12:15:40;;;;;;;1.30;1.30;;;3.10;98.00;;;;;;5094103;28;20484;-67
2021/01/25 12:18:06;;;;;;;1.77;1.40;;;3.20;98.00;;;;;;5091663;28;20463;-65
2021/01/25 12:20:33;;;;;;;2.40;1.80;;;3.40;98.00;;;;;;5093673;28;20460;-65
2021/01/25 12:22:59;;;;;;;2.17;2.00;;;3.20;98.00;;;;;;5091267;28;20834;-65
2021/01/25 12:25:27;;;;;;;2.50;2.00;;;3.30;98.00;;;;;;5093786;28;20456;-65
2021/01/25 12:27:54;;;;;;;2.27;1.67;;;3.40;98.00;;;;;;5091062;28;20456;-65
2021/01/25 12:30:21;;;;;;;2.53;2.03;;;3.30;98.00;;;;;;5093305;28;20891;-67
2021/01/25 12:32:50;;;;;;;1.10;1.00;;;3.40;98.00;;;;;;5091188;28;20677;-66
2021/01/25 12:35:19;;;;;;;1.50;1.50;;;3.60;98.00;;;;;;5093361;28;20483;-64
2021/01/25 12:37:46;;;;;;;1.47;1.37;;;3.90;98.00;;;;;;5091048;28;20494;-66
2021/01/25 12:40:14;;;;;;;1.30;1.20;;;4.50;98.00;;;;;;5092013;28;20452;-64
2021/01/25 12:42:41;;;;;;;1.73;1.43;;;4.40;98.00;;;;;;5090580;28;20459;-65
2021/01/25 12:45:09;;;;;;;1.20;1.00;;;4.30;98.00;;;;;;5092966;28;20459;-64
2021/01/25 12:47:36;;;;;;;6.90;1.60;;;4.40;98.00;;;;;;5090739;28;20448;-64
2021/01/25 12:50:04;;;;;;;1.27;1.23;;;4.10;98.00;;;;;;5093246;28;20466;-64
2021/01/25 12:52:31;;;;;;;1.50;1.40;;;4.20;98.00;;;;;;5089196;28;20448;-64
2021/01/25 12:54:57;;;;;;;2.03;1.60;;;4.20;98.00;;;;;;5093119;28;20476;-65
2021/01/25 12:57:24;;;;;;;1.47;1.20;;;4.30;98.00;;;;;;5090620;28;20460;-65
2021/01/25 12:59:52;;;;;;;1.50;1.30;;;4.40;98.00;;;;;;5092023;28;20789;-65
2021/01/25 13:02:18;;;;;;;1.77;1.63;;;4.50;98.00;;;;;;5090646;28;20983;-64